Time;durP1;ratioP1;P1;durP2;ratioP2;P2;SDS_P1;SDS_P2;PMS_P1;PMS_P2;Temp;Humidity;BMP_temperature;BMP_pressure;BME280_temperature;BME280_humidity;BME280_pressure;Samples;Min_cycle;Max_cycle;Signal;HPM_P1;HPM_P2
2023/08/15 00:01:18;;;;;;;4.95;3.28;;;21.60;99.90;;;;;;5016124;28;20108;-71
2023/08/15 00:03:46;;;;;;;6.45;3.50;;;21.60;99.90;;;;;;5016216;28;20096;-71
2023/08/15 00:06:12;;;;;;;6.55;3.85;;;21.60;99.90;;;;;;5015071;28;20025;-71
2023/08/15 00:08:38;;;;;;;5.10;3.42;;;21.50;99.90;;;;;;5015834;28;20097;-71
2023/08/15 00:11:04;;;;;;;4.38;3.63;;;21.40;99.90;;;;;;5016104;28;20544;-71
2023/08/15 00:13:30;;;;;;;6.35;3.72;;;21.30;99.90;;;;;;5015906;28;20484;-71
2023/08/15 00:15:56;;;;;;;4.28;3.30;;;21.20;99.90;;;;;;5015724;28;20022;-71
2023/08/15 00:18:21;;;;;;;5.40;3.65;;;21.20;99.90;;;;;;5014481;28;20112;-71
2023/08/15 00:20:48;;;;;;;4.97;3.67;;;21.20;99.90;;;;;;5014542;28;20093;-71
2023/08/15 00:23:14;;;;;;;4.90;3.05;;;21.20;99.90;;;;;;5017572;28;20408;-71
2023/08/15 00:25:42;;;;;;;4.65;3.10;;;21.20;99.90;;;;;;5016240;28;20025;-71
2023/08/15 00:28:08;;;;;;;4.07;3.53;;;21.20;99.90;;;;;;5015896;28;20050;-71
2023/08/15 00:30:34;;;;;;;4.47;3.40;;;21.20;99.90;;;;;;5015543;28;20061;-71
2023/08/15 00:32:59;;;;;;;4.22;3.50;;;21.10;99.90;;;;;;5015436;28;20033;-71
2023/08/15 00:35:25;;;;;;;4.82;3.22;;;21.10;99.90;;;;;;5014088;28;20049;-71
2023/08/15 00:37:51;;;;;;;4.38;3.42;;;21.00;99.90;;;;;;5015302;28;20539;-71
2023/08/15 00:40:16;;;;;;;4.88;3.78;;;20.90;99.90;;;;;;5015134;28;20033;-71
2023/08/15 00:42:42;;;;;;;4.85;3.47;;;20.80;99.90;;;;;;5015207;28;20105;-71
2023/08/15 00:45:08;;;;;;;7.97;4.43;;;20.60;99.90;;;;;;5015214;28;20034;-71
2023/08/15 00:47:34;;;;;;;5.40;3.97;;;20.50;99.90;;;;;;5014431;28;20033;-71
2023/08/15 00:50:02;;;;;;;4.78;3.50;;;20.30;99.90;;;;;;5015147;28;20030;-71
2023/08/15 00:52:28;;;;;;;5.78;3.97;;;20.20;99.90;;;;;;5015277;28;20030;-71
2023/08/15 00:54:54;;;;;;;4.25;3.30;;;20.10;99.90;;;;;;5015426;28;20026;-71
2023/08/15 00:57:21;;;;;;;4.65;3.53;;;20.00;99.90;;;;;;5014449;28;20037;-71
2023/08/15 00:59:47;;;;;;;4.05;3.53;;;19.90;99.90;;;;;;5014915;28;20022;-71
2023/08/15 01:02:13;;;;;;;5.50;4.22;;;19.80;99.90;;;;;;5014883;28;20033;-71
2023/08/15 01:04:40;;;;;;;5.18;3.90;;;19.70;99.90;;;;;;5014739;28;20048;-71
2023/08/15 01:07:06;;;;;;;8.30;4.10;;;19.60;99.90;;;;;;5014883;28;20036;-71
2023/08/15 01:09:32;;;;;;;5.78;3.83;;;19.60;99.90;;;;;;5014893;28;20033;-71
2023/08/15 01:12:54;;;;;;;6.60;3.90;;;19.50;99.90;;;;;;5015002;28;20038;-71
2023/08/15 01:15:26;;;;;;;7.00;4.22;;;19.50;99.90;;;;;;4973825;28;20069;-71
2023/08/15 01:18:04;;;;;;;6.40;3.95;;;19.50;99.90;;;;;;4973337;28;20066;-71
2023/08/15 01:20:33;;;;;;;4.70;4.00;;;19.60;99.90;;;;;;5003060;28;20117;-71
2023/08/15 01:23:06;;;;;;;5.13;3.60;;;19.80;99.90;;;;;;5014540;28;20018;-71
2023/08/15 01:25:32;;;;;;;5.47;3.75;;;19.80;99.90;;;;;;5014996;28;20041;-72
2023/08/15 01:28:01;;;;;;;4.15;3.50;;;19.90;99.90;;;;;;5014390;28;20032;-72
2023/08/15 01:30:27;;;;;;;5.70;3.92;;;19.90;99.90;;;;;;5014159;28;20036;-71
2023/08/15 01:33:03;;;;;;;5.88;3.33;;;19.90;99.90;;;;;;5014895;28;20100;-72
2023/08/15 01:35:38;;;;;;;5.05;4.05;;;19.90;99.90;;;;;;5014600;28;20052;-71
2023/08/15 01:38:38;;;;;;;4.65;3.40;;;20.00;99.90;;;;;;5014522;28;20022;-71
2023/08/15 01:41:07;;;;;;;5.78;3.80;;;20.00;99.90;;;;;;5014477;28;20419;-71
2023/08/15 01:43:33;;;;;;;5.00;3.53;;;20.00;99.90;;;;;;5014165;28;20062;-71
2023/08/15 01:46:00;;;;;;;5.10;3.97;;;20.00;99.90;;;;;;5014104;28;20029;-72
2023/08/15 01:48:26;;;;;;;4.75;3.88;;;19.90;99.90;;;;;;5014286;28;20515;-72
2023/08/15 01:50:52;;;;;;;5.75;3.70;;;19.80;99.90;;;;;;5013925;28;20030;-72
2023/08/15 01:53:19;;;;;;;4.05;3.30;;;19.80;99.90;;;;;;5013991;28;20396;-72
2023/08/15 01:55:44;;;;;;;4.38;3.60;;;19.80;99.90;;;;;;5014478;28;20036;-72
2023/08/15 01:58:10;;;;;;;5.97;3.58;;;19.70;99.90;;;;;;5013933;28;20034;-72
2023/08/15 02:00:36;;;;;;;5.50;3.95;;;19.70;99.90;;;;;;5014100;28;20029;-72
2023/08/15 02:03:01;;;;;;;5.07;3.72;;;19.70;99.90;;;;;;5013871;28;20036;-71
2023/08/15 02:05:27;;;;;;;4.72;3.60;;;19.70;99.90;;;;;;5013969;28;20389;-71
2023/08/15 02:07:52;;;;;;;4.53;3.88;;;19.60;99.90;;;;;;5012352;28;20030;-71
2023/08/15 02:10:18;;;;;;;5.75;4.38;;;19.50;99.90;;;;;;5013545;28;20109;-71
2023/08/15 02:12:44;;;;;;;5.75;4.60;;;19.40;99.90;;;;;;5013954;28;20034;-71
2023/08/15 02:15:09;;;;;;;5.15;4.65;;;19.30;99.90;;;;;;4996551;28;20366;-71
2023/08/15 02:17:35;;;;;;;5.85;4.60;;;19.20;99.90;;;;;;5012278;28;20022;-72
2023/08/15 02:20:01;;;;;;;6.72;4.50;;;19.20;99.90;;;;;;5013610;28;20512;-72
2023/08/15 02:22:27;;;;;;;4.55;3.97;;;19.10;99.90;;;;;;5013680;28;20435;-71
2023/08/15 02:24:53;;;;;;;6.22;3.83;;;19.10;99.90;;;;;;5013839;28;20056;-71
2023/08/15 02:27:18;;;;;;;5.18;3.92;;;19.10;99.90;;;;;;5014062;28;20030;-72
2023/08/15 02:29:44;;;;;;;4.85;3.70;;;19.10;99.90;;;;;;5012741;28;20041;-71
2023/08/15 02:32:10;;;;;;;5.07;3.65;;;19.20;99.90;;;;;;5012138;28;20026;-71
2023/08/15 02:34:36;;;;;;;4.60;3.60;;;19.20;99.90;;;;;;5013737;28;20033;-71
2023/08/15 02:37:01;;;;;;;5.55;3.72;;;19.20;99.90;;;;;;5021814;28;20026;-71
2023/08/15 02:39:27;;;;;;;5.80;3.80;;;19.30;99.90;;;;;;5013245;28;20105;-71
2023/08/15 02:41:53;;;;;;;4.55;3.55;;;19.20;99.90;;;;;;5005584;28;20037;-71
2023/08/15 02:44:18;;;;;;;5.88;4.00;;;19.20;99.90;;;;;;5012001;28;20034;-71
2023/08/15 02:46:44;;;;;;;6.05;3.67;;;19.20;99.90;;;;;;5013158;28;20369;-71
2023/08/15 02:49:10;;;;;;;6.75;4.15;;;19.20;99.90;;;;;;5013119;28;20153;-71
2023/08/15 02:51:35;;;;;;;6.20;4.00;;;19.20;99.90;;;;;;5011714;28;20030;-71
2023/08/15 02:54:01;;;;;;;6.13;3.60;;;19.20;99.90;;;;;;5012270;28;20065;-71
2023/08/15 02:56:27;;;;;;;4.93;3.78;;;19.20;99.90;;;;;;5013157;28;20084;-71
2023/08/15 02:58:52;;;;;;;4.57;3.95;;;19.20;99.90;;;;;;5012994;28;20065;-71
2023/08/15 03:01:18;;;;;;;6.07;3.63;;;19.20;99.90;;;;;;5013104;28;20496;-71
2023/08/15 03:03:44;;;;;;;4.05;3.20;;;19.20;99.90;;;;;;5016704;28;20061;-71
2023/08/15 03:06:09;;;;;;;4.15;3.25;;;19.20;99.90;;;;;;5013043;28;20038;-71
2023/08/15 03:08:35;;;;;;;4.97;3.58;;;19.10;99.90;;;;;;5013926;28;20037;-71
2023/08/15 03:11:01;;;;;;;4.70;3.38;;;19.10;99.90;;;;;;5015579;28;20129;-71
2023/08/15 03:13:26;;;;;;;3.90;3.13;;;19.10;99.90;;;;;;5013298;28;20030;-71
2023/08/15 03:15:54;;;;;;;8.65;3.75;;;19.00;99.90;;;;;;5016618;28;20400;-71
2023/08/15 03:18:20;;;;;;;6.38;4.25;;;18.90;99.90;;;;;;5011381;28;20121;-72
2023/08/15 03:21:15;;;;;;;5.18;3.97;;;18.80;99.90;;;;;;5015108;28;20615;-72
2023/08/15 03:23:40;;;;;;;5.07;3.50;;;18.70;99.90;;;;;;5003806;28;20034;-71
2023/08/15 03:26:06;;;;;;;4.53;3.35;;;18.70;99.90;;;;;;5016517;28;20084;-72
2023/08/15 03:28:33;;;;;;;5.13;3.25;;;18.70;99.90;;;;;;5016211;28;20096;-71
2023/08/15 03:31:04;;;;;;;4.38;3.60;;;18.70;99.90;;;;;;5015084;28;20515;-71
2023/08/15 03:33:30;;;;;;;8.25;3.60;;;18.70;99.90;;;;;;5012791;28;20018;-71
2023/08/15 03:35:56;;;;;;;7.05;4.30;;;18.60;99.90;;;;;;5016421;28;20033;-71
2023/08/15 03:38:22;;;;;;;5.13;3.72;;;18.50;99.90;;;;;;5016216;28;20050;-71
2023/08/15 03:40:49;;;;;;;8.10;3.70;;;18.40;99.90;;;;;;5016566;28;20104;-71
2023/08/15 03:43:15;;;;;;;5.47;3.90;;;18.40;99.90;;;;;;5009696;28;20021;-71
2023/08/15 03:45:41;;;;;;;4.90;3.55;;;18.40;99.90;;;;;;5015489;28;20499;-72
2023/08/15 03:48:08;;;;;;;6.15;3.50;;;18.30;99.90;;;;;;5015763;28;20029;-72
2023/08/15 03:50:35;;;;;;;7.35;3.47;;;18.20;99.90;;;;;;5015869;28;20026;-72
2023/08/15 03:53:01;;;;;;;6.20;4.00;;;18.20;99.90;;;;;;5015948;28;20026;-72
2023/08/15 03:55:30;;;;;;;4.97;3.67;;;18.20;99.90;;;;;;5015893;28;20033;-71
2023/08/15 03:57:56;;;;;;;4.55;3.83;;;18.20;99.90;;;;;;5015992;28;20080;-72
2023/08/15 04:00:23;;;;;;;6.20;4.05;;;18.30;99.90;;;;;;5015591;28;20427;-72
2023/08/15 04:02:48;;;;;;;5.55;3.40;;;18.30;99.90;;;;;;5014699;28;20084;-73
2023/08/15 04:05:14;;;;;;;5.47;3.63;;;18.30;99.90;;;;;;5014694;28;20030;-73
2023/08/15 04:07:40;;;;;;;4.75;3.65;;;18.30;99.90;;;;;;5016044;28;20097;-73
2023/08/15 04:10:07;;;;;;;4.80;3.78;;;18.30;99.90;;;;;;5015994;28;20455;-73
2023/08/15 04:12:34;;;;;;;5.40;3.58;;;18.20;99.90;;;;;;5015804;28;20076;-73
2023/08/15 04:15:03;;;;;;;7.82;4.68;;;18.10;99.90;;;;;;5015864;28;20030;-72
2023/08/15 04:17:28;;;;;;;6.75;4.53;;;18.00;99.90;;;;;;5015774;28;20026;-74
2023/08/15 04:19:54;;;;;;;7.90;4.55;;;17.90;99.90;;;;;;5015684;28;20503;-73
2023/08/15 04:22:20;;;;;;;5.15;4.15;;;17.90;99.90;;;;;;5015667;28;20037;-73
2023/08/15 04:24:45;;;;;;;6.47;4.03;;;17.80;99.90;;;;;;5015919;28;20068;-73
2023/08/15 04:27:11;;;;;;;6.07;3.75;;;17.80;99.90;;;;;;5015657;28;20508;-73
2023/08/15 04:29:36;;;;;;;6.22;3.67;;;17.80;99.90;;;;;;5014329;28;20030;-73
2023/08/15 04:32:02;;;;;;;4.68;3.67;;;17.80;99.90;;;;;;5015615;28;20036;-73
2023/08/15 04:34:28;;;;;;;4.82;3.53;;;17.80;99.90;;;;;;5016694;28;20030;-73
2023/08/15 04:36:54;;;;;;;8.57;4.35;;;17.70;99.90;;;;;;5015775;28;20018;-73
2023/08/15 04:39:23;;;;;;;5.22;3.80;;;17.70;99.90;;;;;;5015506;28;20170;-73
2023/08/15 04:41:49;;;;;;;6.35;3.80;;;17.60;99.90;;;;;;5014037;28;20037;-73
2023/08/15 04:44:15;;;;;;;5.53;4.15;;;17.50;99.90;;;;;;5015244;28;20486;-73
2023/08/15 04:46:40;;;;;;;6.75;4.43;;;17.40;99.90;;;;;;5014286;28;20361;-73
2023/08/15 04:49:06;;;;;;;11.88;5.68;;;17.30;99.90;;;;;;5015057;28;20034;-73
2023/08/15 04:51:32;;;;;;;7.85;5.40;;;17.20;99.90;;;;;;5015287;28;20030;-73
2023/08/15 04:53:58;;;;;;;10.20;5.10;;;17.20;99.90;;;;;;5015305;28;20037;-73
2023/08/15 04:56:24;;;;;;;8.48;4.82;;;17.30;99.90;;;;;;5015217;28;20018;-73
2023/08/15 04:58:49;;;;;;;9.40;4.80;;;17.30;99.90;;;;;;5013628;28;20435;-73
2023/08/15 05:01:15;;;;;;;8.13;4.88;;;17.40;99.90;;;;;;5014862;28;20065;-73
2023/08/15 05:03:41;;;;;;;7.60;4.65;;;17.40;99.90;;;;;;5014903;28;20030;-73
2023/08/15 05:06:07;;;;;;;6.07;4.43;;;17.40;99.90;;;;;;5014856;28;20030;-73
2023/08/15 05:08:33;;;;;;;5.72;4.20;;;17.40;99.90;;;;;;5014646;28;20381;-73
2023/08/15 05:11:01;;;;;;;5.65;3.90;;;17.40;99.90;;;;;;5014903;28;20037;-73
2023/08/15 05:13:27;;;;;;;7.35;4.00;;;17.40;99.90;;;;;;5013535;28;20096;-73
2023/08/15 05:15:53;;;;;;;5.75;4.60;;;17.40;99.90;;;;;;5014610;28;20053;-73
2023/08/15 05:18:20;;;;;;;5.93;4.90;;;17.30;99.90;;;;;;5014412;28;20545;-73
2023/08/15 05:20:47;;;;;;;8.13;5.10;;;17.20;99.90;;;;;;5014564;28;20034;-73
2023/08/15 05:23:16;;;;;;;6.90;4.45;;;17.10;99.90;;;;;;5014831;28;20029;-73
2023/08/15 05:25:43;;;;;;;6.78;4.10;;;17.20;99.90;;;;;;5013171;28;20030;-73
2023/08/15 05:28:12;;;;;;;7.35;4.45;;;17.20;99.90;;;;;;5014426;28;20022;-73
2023/08/15 05:30:38;;;;;;;6.18;3.60;;;17.20;99.90;;;;;;5014162;28;20496;-73
2023/08/15 05:33:04;;;;;;;8.05;4.43;;;17.20;99.90;;;;;;5014385;28;20072;-73
2023/08/15 05:35:30;;;;;;;5.65;3.53;;;17.20;99.90;;;;;;5014493;28;20109;-73
2023/08/15 05:37:56;;;;;;;4.53;3.72;;;17.30;99.90;;;;;;5013268;28;20436;-73
2023/08/15 05:40:22;;;;;;;5.47;4.38;;;17.30;99.90;;;;;;5012980;28;20472;-73
2023/08/15 05:42:48;;;;;;;7.55;4.35;;;17.40;99.90;;;;;;5013916;28;20030;-73
2023/08/15 05:45:14;;;;;;;5.38;3.88;;;17.40;99.90;;;;;;5014736;28;20026;-73
2023/08/15 05:47:40;;;;;;;4.75;4.13;;;17.40;99.90;;;;;;5014066;28;20032;-73
2023/08/15 05:50:06;;;;;;;5.35;4.35;;;17.40;99.90;;;;;;5013878;28;20118;-73
2023/08/15 05:52:32;;;;;;;6.25;4.22;;;17.30;99.90;;;;;;5012754;28;20382;-73
2023/08/15 05:54:58;;;;;;;5.68;4.25;;;17.40;99.90;;;;;;5014316;28;20026;-73
2023/08/15 05:57:23;;;;;;;5.85;4.35;;;17.30;99.90;;;;;;5013966;28;20026;-74
2023/08/15 05:59:49;;;;;;;6.15;4.60;;;17.40;99.90;;;;;;5012651;28;20034;-73
2023/08/15 06:02:15;;;;;;;5.93;4.55;;;17.40;99.90;;;;;;5013928;28;20042;-73
2023/08/15 06:04:41;;;;;;;5.55;4.60;;;17.40;99.90;;;;;;5014364;28;20033;-73
2023/08/15 06:07:07;;;;;;;7.07;4.78;;;17.40;99.90;;;;;;5013820;28;20026;-73
2023/08/15 06:09:33;;;;;;;8.57;4.97;;;17.40;99.90;;;;;;5012741;28;20035;-73
2023/08/15 06:11:58;;;;;;;6.38;4.38;;;17.40;99.90;;;;;;5013688;28;20026;-73
2023/08/15 06:14:24;;;;;;;5.97;4.38;;;17.40;99.90;;;;;;5013733;28;20172;-74
2023/08/15 06:16:50;;;;;;;7.43;3.95;;;17.50;99.90;;;;;;5014257;28;20026;-73
2023/08/15 06:19:16;;;;;;;5.90;4.20;;;17.50;99.90;;;;;;5013364;28;20052;-73
2023/08/15 06:21:42;;;;;;;5.93;4.15;;;17.50;99.90;;;;;;5013625;28;20061;-73
2023/08/15 06:24:11;;;;;;;6.88;4.35;;;17.50;99.90;;;;;;5013687;28;20107;-73
2023/08/15 06:26:38;;;;;;;4.88;4.03;;;17.60;99.90;;;;;;5013572;28;20030;-73
2023/08/15 06:29:06;;;;;;;8.23;4.40;;;17.60;99.90;;;;;;5013563;28;20034;-73
2023/08/15 06:31:33;;;;;;;7.70;5.07;;;17.70;99.90;;;;;;5013472;28;20033;-73
2023/08/15 06:34:00;;;;;;;6.15;4.38;;;17.80;99.90;;;;;;5013526;28;20030;-73
2023/08/15 06:36:26;;;;;;;7.72;4.72;;;17.80;99.90;;;;;;5012349;28;20496;-73
2023/08/15 06:38:52;;;;;;;6.00;4.63;;;17.80;99.90;;;;;;5013496;28;20060;-73
2023/08/15 06:41:18;;;;;;;7.80;4.68;;;17.80;99.90;;;;;;5012231;28;20066;-73
2023/08/15 06:43:46;;;;;;;8.43;4.95;;;17.90;99.90;;;;;;5012234;28;20034;-73
2023/08/15 06:46:12;;;;;;;5.43;4.25;;;17.90;99.90;;;;;;5012204;28;20054;-73
2023/08/15 06:48:39;;;;;;;9.60;4.80;;;18.00;99.90;;;;;;5013609;28;20492;-73
2023/08/15 06:51:05;;;;;;;7.05;4.88;;;18.10;99.90;;;;;;5013314;28;20064;-73
2023/08/15 06:53:31;;;;;;;6.10;5.10;;;18.20;99.90;;;;;;5013671;28;20485;-73
2023/08/15 06:55:57;;;;;;;5.45;4.50;;;18.40;99.90;;;;;;5014241;28;20033;-73
2023/08/15 06:58:23;;;;;;;7.97;5.20;;;18.50;99.90;;;;;;5017139;28;20145;-73
2023/08/15 07:00:49;;;;;;;5.45;4.75;;;18.50;99.90;;;;;;5017676;28;20376;-73
2023/08/15 07:03:15;;;;;;;6.18;5.00;;;18.70;99.90;;;;;;5017735;28;20465;-73
2023/08/15 07:05:45;;;;;;;7.55;5.05;;;18.70;99.90;;;;;;5017344;28;20480;-73
2023/08/15 07:08:12;;;;;;;8.98;5.60;;;18.70;99.90;;;;;;5016957;28;20028;-73
2023/08/15 07:10:39;;;;;;;6.13;5.05;;;18.80;99.90;;;;;;5016771;28;20053;-73
2023/08/15 07:13:04;;;;;;;5.72;5.07;;;18.80;99.90;;;;;;5016952;28;20022;-73
2023/08/15 07:15:30;;;;;;;8.07;5.40;;;18.80;99.90;;;;;;5017161;28;20033;-73
2023/08/15 07:17:56;;;;;;;7.13;5.82;;;18.90;99.90;;;;;;5015568;28;20404;-74
2023/08/15 07:20:22;;;;;;;7.05;4.95;;;19.00;99.90;;;;;;5016738;28;20026;-73
2023/08/15 07:22:48;;;;;;;6.25;5.50;;;19.00;99.90;;;;;;5016786;28;20100;-73
2023/08/15 07:25:14;;;;;;;6.95;5.32;;;19.20;99.90;;;;;;5016757;28;20439;-74
2023/08/15 07:27:39;;;;;;;8.35;5.30;;;19.30;99.90;;;;;;5017042;28;20101;-74
2023/08/15 07:30:06;;;;;;;6.57;5.13;;;19.40;99.90;;;;;;5016415;28;20129;-74
2023/08/15 07:32:36;;;;;;;6.13;5.15;;;19.50;99.90;;;;;;5016543;28;20026;-73
2023/08/15 07:35:03;;;;;;;8.93;6.13;;;19.70;99.90;;;;;;5016878;28;20029;-74
2023/08/15 07:37:30;;;;;;;6.07;5.20;;;19.80;99.90;;;;;;5015224;28;20112;-74
2023/08/15 07:40:05;;;;;;;8.20;5.80;;;20.00;99.90;;;;;;5016505;28;20060;-74
2023/08/15 07:42:31;;;;;;;6.15;5.18;;;20.10;99.90;;;;;;5015816;28;20063;-74
2023/08/15 07:44:58;;;;;;;7.10;5.25;;;20.20;99.90;;;;;;5015319;28;20034;-73
2023/08/15 07:47:24;;;;;;;9.98;5.72;;;20.40;99.90;;;;;;5015034;28;20079;-74
2023/08/15 07:50:10;;;;;;;6.75;5.40;;;20.50;99.90;;;;;;5016436;28;20038;-74
2023/08/15 07:52:35;;;;;;;7.82;5.70;;;20.70;99.90;;;;;;5016433;28;20049;-74
2023/08/15 07:55:01;;;;;;;5.68;5.03;;;20.80;99.90;;;;;;5015769;28;20026;-74
2023/08/15 07:57:27;;;;;;;8.43;5.88;;;20.90;99.90;;;;;;5016516;28;20029;-74
2023/08/15 07:59:53;;;;;;;7.80;5.32;;;21.10;99.90;;;;;;5014910;28;20034;-74
2023/08/15 08:02:19;;;;;;;7.75;5.30;;;21.30;99.90;;;;;;5016443;28;20400;-73
2023/08/15 08:04:44;;;;;;;5.85;4.60;;;21.40;99.90;;;;;;5015960;28;20488;-74
2023/08/15 08:07:11;;;;;;;6.32;4.82;;;21.60;99.90;;;;;;5015793;28;20030;-74
2023/08/15 08:09:36;;;;;;;6.55;5.50;;;21.80;99.90;;;;;;5015804;28;20033;-73
2023/08/15 08:12:02;;;;;;;6.00;4.78;;;21.90;99.90;;;;;;5015998;28;20600;-74
2023/08/15 08:14:28;;;;;;;5.72;4.57;;;22.10;99.90;;;;;;5016109;28;20030;-74
2023/08/15 08:16:54;;;;;;;6.15;5.10;;;22.20;99.90;;;;;;5015773;28;20523;-74
2023/08/15 08:19:19;;;;;;;8.68;5.18;;;22.40;99.90;;;;;;5015573;28;20034;-74
2023/08/15 08:21:45;;;;;;;7.07;5.15;;;22.60;99.90;;;;;;5016297;28;20085;-74
2023/08/15 08:24:11;;;;;;;6.07;5.15;;;22.70;99.90;;;;;;5015835;28;20435;-73
2023/08/15 08:26:36;;;;;;;8.40;5.28;;;22.90;99.90;;;;;;5015647;28;20038;-73
2023/08/15 08:29:02;;;;;;;5.18;4.68;;;23.00;99.90;;;;;;5026534;28;20072;-73
2023/08/15 08:31:28;;;;;;;6.68;4.97;;;23.20;99.90;;;;;;5032506;28;20038;-74
2023/08/15 08:33:54;;;;;;;5.82;4.82;;;23.30;99.90;;;;;;5015046;28;20026;-73
2023/08/15 08:36:19;;;;;;;5.82;4.50;;;23.40;99.90;;;;;;5015452;28;20109;-74
2023/08/15 08:38:45;;;;;;;6.35;4.82;;;23.40;99.90;;;;;;5021904;28;20112;-73
2023/08/15 08:41:12;;;;;;;5.85;4.72;;;23.50;99.90;;;;;;5015261;28;20473;-73
2023/08/15 08:43:37;;;;;;;7.50;4.63;;;23.50;99.90;;;;;;5020929;28;20030;-73
2023/08/15 08:46:04;;;;;;;6.38;4.80;;;23.50;99.90;;;;;;5016917;28;20037;-73
2023/08/15 08:48:32;;;;;;;7.47;5.35;;;23.60;99.90;;;;;;5013434;28;20041;-74
2023/08/15 08:50:58;;;;;;;6.60;5.00;;;23.70;99.90;;;;;;5014068;28;20050;-73
2023/08/15 08:53:24;;;;;;;9.90;4.82;;;23.70;99.90;;;;;;5018243;28;20102;-73
2023/08/15 08:55:50;;;;;;;8.40;4.97;;;23.80;99.90;;;;;;5014712;28;20026;-73
2023/08/15 08:58:16;;;;;;;5.88;4.70;;;23.90;99.90;;;;;;4997389;28;20022;-73
2023/08/15 09:00:43;;;;;;;6.65;4.70;;;24.00;99.90;;;;;;5014546;28;20040;-73
2023/08/15 09:03:09;;;;;;;7.55;4.40;;;24.20;99.90;;;;;;5014830;28;20451;-73
2023/08/15 09:05:36;;;;;;;8.68;4.82;;;24.30;99.90;;;;;;5020370;28;20044;-73
2023/08/15 09:08:03;;;;;;;8.63;4.70;;;24.50;99.90;;;;;;5014915;28;20384;-74
2023/08/15 09:10:28;;;;;;;5.40;4.70;;;24.70;99.90;;;;;;5014118;28;20022;-73
2023/08/15 09:12:59;;;;;;;5.55;4.43;;;24.80;99.90;;;;;;5018496;28;20026;-73
2023/08/15 09:15:25;;;;;;;7.25;4.65;;;25.00;99.90;;;;;;5014649;28;20030;-73
2023/08/15 09:17:59;;;;;;;5.68;4.30;;;25.20;99.90;;;;;;5016181;28;20437;-74
2023/08/15 09:20:25;;;;;;;6.10;4.95;;;25.40;99.90;;;;;;5013607;28;20033;-74
2023/08/15 09:22:58;;;;;;;10.15;4.70;;;25.60;99.90;;;;;;5016298;28;20076;-73
2023/08/15 09:25:25;;;;;;;5.53;4.82;;;25.70;99.90;;;;;;5013523;28;20061;-73
2023/08/15 09:27:51;;;;;;;5.90;4.88;;;25.80;99.90;;;;;;5012571;28;20041;-73
2023/08/15 09:30:17;;;;;;;6.28;4.75;;;25.90;99.90;;;;;;5013179;28;20038;-73
2023/08/15 09:32:44;;;;;;;5.82;4.38;;;26.00;99.90;;;;;;5012781;28;20057;-73
2023/08/15 09:35:12;;;;;;;5.57;4.72;;;26.20;99.90;;;;;;5005467;28;20053;-74
2023/08/15 09:37:42;;;;;;;6.22;4.40;;;26.20;99.90;;;;;;5007433;28;20109;-73
2023/08/15 09:40:30;;;;;;;7.47;4.65;;;26.20;99.90;;;;;;5013330;28;20034;-73
2023/08/15 09:42:57;;;;;;;5.15;4.32;;;26.20;99.90;;;;;;5008834;28;20049;-73
2023/08/15 09:45:24;;;;;;;5.60;4.32;;;26.40;99.90;;;;;;5016930;28;20392;-74
2023/08/15 09:47:49;;;;;;;5.50;4.32;;;26.50;99.90;;;;;;5013174;28;20026;-73
2023/08/15 09:50:16;;;;;;;5.97;3.97;;;26.60;99.90;;;;;;5014110;28;20088;-73
2023/08/15 09:52:43;;;;;;;6.47;3.97;;;26.70;99.90;;;;;;5013155;28;20096;-74
2023/08/15 09:55:13;;;;;;;5.93;4.63;;;26.90;99.90;;;;;;5017135;28;20520;-73
2023/08/15 09:57:39;;;;;;;5.75;4.25;;;27.00;99.90;;;;;;5013914;28;20025;-72
2023/08/15 10:00:13;;;;;;;6.90;4.65;;;27.10;99.90;;;;;;5017412;28;20040;-72
2023/08/15 10:02:43;;;;;;;5.55;4.50;;;27.30;99.90;;;;;;5013039;28;20034;-72
2023/08/15 10:05:11;;;;;;;8.32;4.65;;;27.40;99.90;;;;;;5013031;28;20034;-72
2023/08/15 10:07:38;;;;;;;5.47;4.60;;;27.40;99.90;;;;;;5015503;28;20034;-72
2023/08/15 10:10:05;;;;;;;8.38;4.68;;;27.40;99.90;;;;;;5012815;28;20030;-72
2023/08/15 10:12:33;;;;;;;6.07;4.60;;;27.60;99.90;;;;;;5017072;28;20045;-72
2023/08/15 10:14:59;;;;;;;6.07;4.40;;;27.70;99.90;;;;;;5012886;28;20032;-72
2023/08/15 10:17:26;;;;;;;;;;;27.90;99.90;;;;;;4976662;28;1165662;-73
2023/08/15 10:19:52;;;;;;;;;;;28.10;99.90;;;;;;5012670;28;19947;-72
2023/08/15 10:22:18;;;;;;;;;;;28.20;99.90;;;;;;5016736;28;19946;-72
2023/08/15 10:24:44;;;;;;;;;;;28.30;99.90;;;;;;5013984;28;19909;-72
2023/08/15 10:27:10;;;;;;;;;;;28.40;99.80;;;;;;5012862;28;19906;-73
2023/08/15 10:29:52;;;;;;;;;;;28.50;99.90;;;;;;5011521;28;19909;-72
2023/08/15 10:32:22;;;;;;;;;;;28.60;99.70;;;;;;5013656;28;19906;-72
2023/08/15 10:34:57;;;;;;;;;;;28.70;99.90;;;;;;5016668;28;19912;-72
2023/08/15 10:37:30;;;;;;;;;;;28.80;99.20;;;;;;5013193;28;19909;-72
2023/08/15 10:40:10;;;;;;;;;;;28.90;98.50;;;;;;5014860;28;19906;-72
2023/08/15 10:42:54;;;;;;;;;;;29.00;98.70;;;;;;5015376;28;19906;-72
2023/08/15 10:45:19;;;;;;;;;;;29.20;98.00;;;;;;5013597;28;20261;-72
2023/08/15 10:47:45;;;;;;;;;;;29.40;98.50;;;;;;5014499;28;19913;-72
2023/08/15 10:50:11;;;;;;;;;;;29.50;97.80;;;;;;5013270;28;19920;-72
2023/08/15 10:52:39;;;;;;;;;;;29.60;96.30;;;;;;5015719;28;19910;-72
2023/08/15 10:55:05;;;;;;;;;;;29.70;97.10;;;;;;5013369;28;20291;-72
2023/08/15 10:57:32;;;;;;;;;;;29.80;96.60;;;;;;5019143;28;19905;-72
2023/08/15 10:59:58;;;;;;;;;;;29.90;96.60;;;;;;5013137;28;19992;-72
2023/08/15 11:02:23;;;;;;;;;;;30.00;96.30;;;;;;5022981;28;20020;-72
2023/08/15 11:04:49;;;;;;;;;;;30.10;96.40;;;;;;5031828;28;19905;-73
2023/08/15 11:07:25;;;;;;;;;;;30.20;96.60;;;;;;5031517;28;20359;-73
2023/08/15 11:09:50;;;;;;;;;;;30.30;95.10;;;;;;5006058;28;19914;-73
2023/08/15 11:12:16;;;;;;;;;;;30.40;94.00;;;;;;5012343;28;20360;-73
2023/08/15 11:14:41;;;;;;;;;;;30.40;93.60;;;;;;5012307;28;19952;-73
2023/08/15 11:17:07;;;;;;;;;;;30.40;91.70;;;;;;5009540;28;19914;-73
2023/08/15 11:19:33;;;;;;;;;;;30.50;91.60;;;;;;5009273;28;20364;-73
2023/08/15 11:21:58;;;;;;;;;;;30.60;92.30;;;;;;5008032;28;20012;-73
2023/08/15 11:24:29;;;;;;;;;;;30.70;90.50;;;;;;5013317;28;19910;-73
2023/08/15 11:26:57;;;;;;;;;;;30.80;90.00;;;;;;5011728;28;19920;-73
2023/08/15 11:29:23;;;;;;;;;;;30.90;88.30;;;;;;5013107;28;19932;-73
2023/08/15 11:31:48;;;;;;;;;;;31.00;86.90;;;;;;5012061;28;20383;-73
2023/08/15 11:34:14;;;;;;;;;;;31.00;84.70;;;;;;5012132;28;19905;-73
2023/08/15 11:36:40;;;;;;;;;;;31.00;86.10;;;;;;5013361;28;20322;-73
2023/08/15 11:39:10;;;;;;;;;;;31.10;87.90;;;;;;5013599;28;19913;-73
2023/08/15 11:41:36;;;;;;;;;;;31.10;86.80;;;;;;5015610;28;20363;-73
2023/08/15 11:44:03;;;;;;;;;;;31.10;84.30;;;;;;5016247;28;19916;-72
2023/08/15 11:46:28;;;;;;;;;;;31.20;83.70;;;;;;5017392;28;19905;-73
2023/08/15 11:48:54;;;;;;;;;;;31.40;83.20;;;;;;5016660;28;19933;-73
2023/08/15 11:51:22;;;;;;;;;;;31.50;84.00;;;;;;5017244;28;19913;-72
2023/08/15 11:53:49;;;;;;;;;;;31.60;84.20;;;;;;5017079;28;19905;-73
2023/08/15 11:56:14;;;;;;;;;;;31.70;83.20;;;;;;5017249;28;20398;-73
2023/08/15 11:58:40;;;;;;;;;;;31.70;82.20;;;;;;5016533;28;19956;-73
2023/08/15 12:01:06;;;;;;;;;;;31.80;81.40;;;;;;5016428;28;19960;-73
2023/08/15 12:03:35;;;;;;;;;;;31.80;82.30;;;;;;5015246;28;19983;-73
2023/08/15 12:06:13;;;;;;;;;;;31.90;81.40;;;;;;5016788;28;19905;-73
2023/08/15 12:08:41;;;;;;;;;;;31.90;80.10;;;;;;5016463;28;19978;-73
2023/08/15 12:11:08;;;;;;;;;;;32.00;79.30;;;;;;5016595;28;19910;-73
2023/08/15 12:13:33;;;;;;;;;;;32.00;79.90;;;;;;5016325;28;20051;-73
2023/08/15 12:16:02;;;;;;;;;;;32.10;79.80;;;;;;5016251;28;20383;-72
2023/08/15 12:18:28;;;;;;;;;;;32.10;76.20;;;;;;5016148;28;19922;-72
2023/08/15 12:20:55;;;;;;;;;;;32.00;78.00;;;;;;5016478;28;19988;-73
2023/08/15 12:23:20;;;;;;;;;;;31.90;77.60;;;;;;5016127;28;19911;-73
2023/08/15 12:25:46;;;;;;;;;;;31.80;77.40;;;;;;5016097;28;19949;-73
2023/08/15 12:28:12;;;;;;;;;;;31.80;77.60;;;;;;5016045;28;20390;-73
2023/08/15 12:30:38;;;;;;;;;;;31.90;78.70;;;;;;5015757;28;20004;-73
2023/08/15 12:33:05;;;;;;;;;;;31.90;79.40;;;;;;5016133;28;19952;-73
2023/08/15 12:35:31;;;;;;;;;;;32.00;79.10;;;;;;5015901;28;19909;-73
2023/08/15 12:37:56;;;;;;;;;;;32.00;76.20;;;;;;5015799;28;19910;-72
2023/08/15 12:40:22;;;;;;;;;;;32.00;77.10;;;;;;5016000;28;20264;-72
2023/08/15 12:42:47;;;;;;;;;;;32.10;77.30;;;;;;5015617;28;20375;-72
2023/08/15 12:45:13;;;;;;;;;;;32.10;77.70;;;;;;5015981;28;19920;-72
2023/08/15 12:47:38;;;;;;;;;;;32.20;79.50;;;;;;5015666;28;19909;-72
2023/08/15 12:50:04;;;;;;;;;;;32.30;77.10;;;;;;5016211;28;20007;-72
2023/08/15 12:52:30;;;;;;;;;;;32.30;76.30;;;;;;5015595;28;20028;-72
2023/08/15 12:54:56;;;;;;;;;;;32.40;77.50;;;;;;5015441;28;19910;-72
2023/08/15 12:57:21;;;;;;;;;;;32.30;73.70;;;;;;5015355;28;19917;-72
2023/08/15 12:59:47;;;;;;;;;;;32.20;75.40;;;;;;5015332;28;19916;-72
2023/08/15 13:02:13;;;;;;;;;;;32.20;77.10;;;;;;5014054;28;20300;-72
2023/08/15 13:04:38;;;;;;;;;;;32.20;77.20;;;;;;5015225;28;19957;-71